sensor_id;sensor_type;location;lat;lon;timestamp;temperature;humidity
27376;DHT22;14844;51.302;6.354;2022-11-02T00:01:22;13.80;99.90
27376;DHT22;14844;51.302;6.354;2022-11-02T00:03:48;13.90;99.90
27376;DHT22;14844;51.302;6.354;2022-11-02T00:06:14;13.90;99.90
27376;DHT22;14844;51.302;6.354;2022-11-02T00:08:39;13.90;99.90
27376;DHT22;14844;51.302;6.354;2022-11-02T00:11:05;13.90;99.90
27376;DHT22;14844;51.302;6.354;2022-11-02T00:13:30;13.90;99.90
27376;DHT22;14844;51.302;6.354;2022-11-02T00:15:56;13.70;99.90
27376;DHT22;14844;51.302;6.354;2022-11-02T00:18:24;13.70;99.90
27376;DHT22;14844;51.302;6.354;2022-11-02T00:20:50;13.60;99.90
27376;DHT22;14844;51.302;6.354;2022-11-02T00:23:16;13.50;99.90
27376;DHT22;14844;51.302;6.354;2022-11-02T00:25:44;13.50;99.90
27376;DHT22;14844;51.302;6.354;2022-11-02T00:28:10;13.50;99.90
27376;DHT22;14844;51.302;6.354;2022-11-02T00:30:36;13.50;99.90
27376;DHT22;14844;51.302;6.354;2022-11-02T00:33:02;13.60;99.90
27376;DHT22;14844;51.302;6.354;2022-11-02T00:35:28;13.60;99.90
27376;DHT22;14844;51.302;6.354;2022-11-02T00:37:53;13.50;99.90
27376;DHT22;14844;51.302;6.354;2022-11-02T00:40:19;13.40;99.90
27376;DHT22;14844;51.302;6.354;2022-11-02T00:42:44;13.50;99.90
27376;DHT22;14844;51.302;6.354;2022-11-02T00:45:10;13.50;99.90
27376;DHT22;14844;51.302;6.354;2022-11-02T00:47:36;13.50;99.90
27376;DHT22;14844;51.302;6.354;2022-11-02T00:50:02;13.40;99.90
27376;DHT22;14844;51.302;6.354;2022-11-02T00:52:28;13.30;99.90
27376;DHT22;14844;51.302;6.354;2022-11-02T00:54:53;13.30;99.90
27376;DHT22;14844;51.302;6.354;2022-11-02T00:57:20;13.30;99.90
27376;DHT22;14844;51.302;6.354;2022-11-02T00:59:45;13.30;99.90
27376;DHT22;14844;51.302;6.354;2022-11-02T01:02:11;13.20;99.90
27376;DHT22;14844;51.302;6.354;2022-11-02T01:04:36;13.20;99.90
27376;DHT22;14844;51.302;6.354;2022-11-02T01:07:03;13.20;99.90
27376;DHT22;14844;51.302;6.354;2022-11-02T01:09:28;13.00;99.90
27376;DHT22;14844;51.302;6.354;2022-11-02T01:11:54;13.00;99.90
27376;DHT22;14844;51.302;6.354;2022-11-02T01:14:20;12.90;99.90
27376;DHT22;14844;51.302;6.354;2022-11-02T01:16:45;12.90;99.90
27376;DHT22;14844;51.302;6.354;2022-11-02T01:19:11;12.90;99.90
27376;DHT22;14844;51.302;6.354;2022-11-02T01:21:37;12.80;99.90
27376;DHT22;14844;51.302;6.354;2022-11-02T01:24:02;12.90;99.90
27376;DHT22;14844;51.302;6.354;2022-11-02T01:26:28;13.00;99.90
27376;DHT22;14844;51.302;6.354;2022-11-02T01:28:54;13.00;99.90
27376;DHT22;14844;51.302;6.354;2022-11-02T01:31:19;13.10;99.90
27376;DHT22;14844;51.302;6.354;2022-11-02T01:33:45;13.20;99.90
27376;DHT22;14844;51.302;6.354;2022-11-02T01:36:12;13.20;99.90
27376;DHT22;14844;51.302;6.354;2022-11-02T01:38:38;13.10;99.90
27376;DHT22;14844;51.302;6.354;2022-11-02T01:41:05;13.20;99.90
27376;DHT22;14844;51.302;6.354;2022-11-02T01:43:33;13.10;99.90
27376;DHT22;14844;51.302;6.354;2022-11-02T01:48:41;12.90;99.90
27376;DHT22;14844;51.302;6.354;2022-11-02T01:53:47;12.80;99.90
27376;DHT22;14844;51.302;6.354;2022-11-02T01:56:16;12.80;99.90
27376;DHT22;14844;51.302;6.354;2022-11-02T01:58:46;12.80;99.90
27376;DHT22;14844;51.302;6.354;2022-11-02T02:01:13;12.80;99.90
27376;DHT22;14844;51.302;6.354;2022-11-02T02:03:39;12.70;99.90
27376;DHT22;14844;51.302;6.354;2022-11-02T02:06:08;12.60;99.90
27376;DHT22;14844;51.302;6.354;2022-11-02T02:08:38;12.50;99.90
27376;DHT22;14844;51.302;6.354;2022-11-02T02:13:49;12.40;99.90
27376;DHT22;14844;51.302;6.354;2022-11-02T02:17:09;12.30;99.90
27376;DHT22;14844;51.302;6.354;2022-11-02T02:30:39;12.60;99.90
27376;DHT22;14844;51.302;6.354;2022-11-02T02:33:16;12.60;99.90
27376;DHT22;14844;51.302;6.354;2022-11-02T02:35:53;12.70;99.90
27376;DHT22;14844;51.302;6.354;2022-11-02T02:38:41;12.60;99.90
27376;DHT22;14844;51.302;6.354;2022-11-02T02:41:13;12.60;99.90
27376;DHT22;14844;51.302;6.354;2022-11-02T02:43:46;12.60;99.90
27376;DHT22;14844;51.302;6.354;2022-11-02T02:46:35;12.50;99.90
27376;DHT22;14844;51.302;6.354;2022-11-02T02:49:04;12.50;99.90
27376;DHT22;14844;51.302;6.354;2022-11-02T02:51:33;12.40;99.90
27376;DHT22;14844;51.302;6.354;2022-11-02T02:54:13;12.40;99.90
27376;DHT22;14844;51.302;6.354;2022-11-02T02:56:53;12.20;99.90
27376;DHT22;14844;51.302;6.354;2022-11-02T02:59:31;12.20;99.90
27376;DHT22;14844;51.302;6.354;2022-11-02T03:01:58;12.20;99.90
27376;DHT22;14844;51.302;6.354;2022-11-02T03:04:24;12.20;99.90
27376;DHT22;14844;51.302;6.354;2022-11-02T03:06:56;12.20;99.90
27376;DHT22;14844;51.302;6.354;2022-11-02T03:09:38;12.20;99.90
27376;DHT22;14844;51.302;6.354;2022-11-02T03:15:06;12.20;99.90
27376;DHT22;14844;51.302;6.354;2022-11-02T03:18:17;12.10;99.90
27376;DHT22;14844;51.302;6.354;2022-11-02T03:21:14;12.10;99.90
27376;DHT22;14844;51.302;6.354;2022-11-02T03:24:01;12.10;99.90
27376;DHT22;14844;51.302;6.354;2022-11-02T03:29:17;12.10;99.90
27376;DHT22;14844;51.302;6.354;2022-11-02T03:31:59;12.20;99.90
27376;DHT22;14844;51.302;6.354;2022-11-02T03:37:27;12.20;99.90
27376;DHT22;14844;51.302;6.354;2022-11-02T03:40:03;12.20;99.90
27376;DHT22;14844;51.302;6.354;2022-11-02T03:42:32;12.30;99.90
27376;DHT22;14844;51.302;6.354;2022-11-02T03:45:06;12.30;99.90
27376;DHT22;14844;51.302;6.354;2022-11-02T03:47:35;12.20;99.90
27376;DHT22;14844;51.302;6.354;2022-11-02T03:50:03;12.20;99.90
27376;DHT22;14844;51.302;6.354;2022-11-02T03:52:31;12.10;99.90
27376;DHT22;14844;51.302;6.354;2022-11-02T03:55:11;12.00;99.90
27376;DHT22;14844;51.302;6.354;2022-11-02T03:57:46;12.00;99.90
27376;DHT22;14844;51.302;6.354;2022-11-02T04:00:18;12.00;99.90
27376;DHT22;14844;51.302;6.354;2022-11-02T04:02:51;12.00;99.90
27376;DHT22;14844;51.302;6.354;2022-11-02T04:05:18;12.00;99.90
27376;DHT22;14844;51.302;6.354;2022-11-02T04:07:48;12.20;99.90
27376;DHT22;14844;51.302;6.354;2022-11-02T04:10:33;12.10;99.90
27376;DHT22;14844;51.302;6.354;2022-11-02T04:12:59;12.10;99.90
27376;DHT22;14844;51.302;6.354;2022-11-02T04:16:00;12.10;99.90
27376;DHT22;14844;51.302;6.354;2022-11-02T04:18:25;12.20;99.90
27376;DHT22;14844;51.302;6.354;2022-11-02T04:21:09;12.20;99.90
27376;DHT22;14844;51.302;6.354;2022-11-02T04:23:35;12.20;99.90
27376;DHT22;14844;51.302;6.354;2022-11-02T04:26:19;12.20;99.90
27376;DHT22;14844;51.302;6.354;2022-11-02T04:28:44;12.10;99.90
27376;DHT22;14844;51.302;6.354;2022-11-02T04:31:10;12.20;99.90
27376;DHT22;14844;51.302;6.354;2022-11-02T04:33:37;12.20;99.90
27376;DHT22;14844;51.302;6.354;2022-11-02T04:36:04;12.20;99.90
27376;DHT22;14844;51.302;6.354;2022-11-02T04:38:31;12.10;99.90
27376;DHT22;14844;51.302;6.354;2022-11-02T04:43:52;12.10;99.90
27376;DHT22;14844;51.302;6.354;2022-11-02T04:46:18;12.10;99.90
27376;DHT22;14844;51.302;6.354;2022-11-02T04:48:43;12.20;99.90
27376;DHT22;14844;51.302;6.354;2022-11-02T04:51:09;12.10;99.90
27376;DHT22;14844;51.302;6.354;2022-11-02T04:53:35;12.00;99.90
27376;DHT22;14844;51.302;6.354;2022-11-02T04:56:00;12.00;99.90
27376;DHT22;14844;51.302;6.354;2022-11-02T04:58:26;11.90;99.90
27376;DHT22;14844;51.302;6.354;2022-11-02T05:00:51;11.90;99.90
27376;DHT22;14844;51.302;6.354;2022-11-02T05:03:17;11.90;99.90
27376;DHT22;14844;51.302;6.354;2022-11-02T05:05:42;12.00;99.90
27376;DHT22;14844;51.302;6.354;2022-11-02T05:08:08;11.90;99.90
27376;DHT22;14844;51.302;6.354;2022-11-02T05:10:34;11.90;99.90
27376;DHT22;14844;51.302;6.354;2022-11-02T05:13:00;11.90;99.90
27376;DHT22;14844;51.302;6.354;2022-11-02T05:15:25;11.80;99.90
27376;DHT22;14844;51.302;6.354;2022-11-02T05:17:51;11.80;99.90
27376;DHT22;14844;51.302;6.354;2022-11-02T05:20:17;11.80;99.90
27376;DHT22;14844;51.302;6.354;2022-11-02T05:22:43;11.70;99.90
27376;DHT22;14844;51.302;6.354;2022-11-02T05:25:09;11.80;99.90
27376;DHT22;14844;51.302;6.354;2022-11-02T05:27:34;11.80;99.90
27376;DHT22;14844;51.302;6.354;2022-11-02T05:30:00;11.80;99.90
27376;DHT22;14844;51.302;6.354;2022-11-02T05:32:26;11.80;99.90
27376;DHT22;14844;51.302;6.354;2022-11-02T05:34:52;11.80;99.90
27376;DHT22;14844;51.302;6.354;2022-11-02T05:37:17;11.70;99.90
27376;DHT22;14844;51.302;6.354;2022-11-02T05:39:43;11.60;99.90
27376;DHT22;14844;51.302;6.354;2022-11-02T05:42:08;11.70;99.90
27376;DHT22;14844;51.302;6.354;2022-11-02T05:44:34;11.60;99.90
27376;DHT22;14844;51.302;6.354;2022-11-02T05:47:00;11.70;99.90
27376;DHT22;14844;51.302;6.354;2022-11-02T05:49:25;11.70;99.90
27376;DHT22;14844;51.302;6.354;2022-11-02T05:51:51;11.70;99.90
27376;DHT22;14844;51.302;6.354;2022-11-02T05:54:16;11.80;99.90
27376;DHT22;14844;51.302;6.354;2022-11-02T05:56:42;11.60;99.90
27376;DHT22;14844;51.302;6.354;2022-11-02T05:59:07;11.70;99.90
27376;DHT22;14844;51.302;6.354;2022-11-02T06:01:33;11.60;99.90
27376;DHT22;14844;51.302;6.354;2022-11-02T06:03:59;11.60;99.90
27376;DHT22;14844;51.302;6.354;2022-11-02T06:06:25;11.60;99.90
27376;DHT22;14844;51.302;6.354;2022-11-02T06:08:51;11.50;99.90
27376;DHT22;14844;51.302;6.354;2022-11-02T06:11:17;11.60;99.90
27376;DHT22;14844;51.302;6.354;2022-11-02T06:13:43;11.60;99.90
27376;DHT22;14844;51.302;6.354;2022-11-02T06:16:10;11.50;99.90
27376;DHT22;14844;51.302;6.354;2022-11-02T06:18:37;11.50;99.90
27376;DHT22;14844;51.302;6.354;2022-11-02T06:21:03;11.60;99.90
27376;DHT22;14844;51.302;6.354;2022-11-02T06:23:28;11.60;99.90
27376;DHT22;14844;51.302;6.354;2022-11-02T06:25:56;11.60;99.90
27376;DHT22;14844;51.302;6.354;2022-11-02T06:28:22;11.60;99.90
27376;DHT22;14844;51.302;6.354;2022-11-02T06:30:48;11.60;99.90
27376;DHT22;14844;51.302;6.354;2022-11-02T06:33:15;11.60;99.90
27376;DHT22;14844;51.302;6.354;2022-11-02T06:35:44;11.60;99.90
27376;DHT22;14844;51.302;6.354;2022-11-02T06:38:10;11.70;99.90
27376;DHT22;14844;51.302;6.354;2022-11-02T06:40:36;11.60;99.90
27376;DHT22;14844;51.302;6.354;2022-11-02T06:43:01;11.60;99.90
27376;DHT22;14844;51.302;6.354;2022-11-02T06:45:27;11.60;99.90
27376;DHT22;14844;51.302;6.354;2022-11-02T06:47:52;11.50;99.90
27376;DHT22;14844;51.302;6.354;2022-11-02T06:50:18;11.60;99.90
27376;DHT22;14844;51.302;6.354;2022-11-02T06:52:44;11.60;99.90
27376;DHT22;14844;51.302;6.354;2022-11-02T06:55:12;11.60;99.90
27376;DHT22;14844;51.302;6.354;2022-11-02T06:57:38;11.60;99.90
27376;DHT22;14844;51.302;6.354;2022-11-02T07:00:05;11.60;99.90
27376;DHT22;14844;51.302;6.354;2022-11-02T07:02:31;11.70;99.90
27376;DHT22;14844;51.302;6.354;2022-11-02T07:04:57;11.70;99.90
27376;DHT22;14844;51.302;6.354;2022-11-02T07:07:22;11.80;99.90
27376;DHT22;14844;51.302;6.354;2022-11-02T07:09:48;11.80;99.90
27376;DHT22;14844;51.302;6.354;2022-11-02T07:12:14;11.90;99.90
27376;DHT22;14844;51.302;6.354;2022-11-02T07:14:39;11.90;99.90
27376;DHT22;14844;51.302;6.354;2022-11-02T07:17:05;11.90;99.90
27376;DHT22;14844;51.302;6.354;2022-11-02T07:19:30;12.00;99.90
27376;DHT22;14844;51.302;6.354;2022-11-02T07:21:56;12.00;99.90
27376;DHT22;14844;51.302;6.354;2022-11-02T07:24:21;12.00;99.90
27376;DHT22;14844;51.302;6.354;2022-11-02T07:26:48;12.00;99.90
27376;DHT22;14844;51.302;6.354;2022-11-02T07:29:15;12.00;99.90
27376;DHT22;14844;51.302;6.354;2022-11-02T07:31:41;12.10;99.90
27376;DHT22;14844;51.302;6.354;2022-11-02T07:34:06;12.10;99.90
27376;DHT22;14844;51.302;6.354;2022-11-02T07:36:32;12.20;99.90
27376;DHT22;14844;51.302;6.354;2022-11-02T07:38:57;12.20;99.90
27376;DHT22;14844;51.302;6.354;2022-11-02T07:41:23;12.30;99.90
27376;DHT22;14844;51.302;6.354;2022-11-02T07:43:49;12.30;99.90
27376;DHT22;14844;51.302;6.354;2022-11-02T07:46:14;12.30;99.90
27376;DHT22;14844;51.302;6.354;2022-11-02T07:48:40;12.40;99.90
27376;DHT22;14844;51.302;6.354;2022-11-02T07:51:06;12.40;99.90
27376;DHT22;14844;51.302;6.354;2022-11-02T07:53:32;12.50;99.90
27376;DHT22;14844;51.302;6.354;2022-11-02T07:56:05;12.50;99.90
27376;DHT22;14844;51.302;6.354;2022-11-02T07:58:30;12.50;99.90
27376;DHT22;14844;51.302;6.354;2022-11-02T08:00:57;12.50;99.90
27376;DHT22;14844;51.302;6.354;2022-11-02T08:03:23;12.50;99.90
27376;DHT22;14844;51.302;6.354;2022-11-02T08:05:49;12.60;99.90
27376;DHT22;14844;51.302;6.354;2022-11-02T08:08:17;12.70;99.90
27376;DHT22;14844;51.302;6.354;2022-11-02T08:10:44;12.70;99.90
27376;DHT22;14844;51.302;6.354;2022-11-02T08:13:13;12.70;99.90
27376;DHT22;14844;51.302;6.354;2022-11-02T08:15:40;12.70;99.90
27376;DHT22;14844;51.302;6.354;2022-11-02T08:18:08;12.70;99.90
27376;DHT22;14844;51.302;6.354;2022-11-02T08:20:36;12.80;99.90
27376;DHT22;14844;51.302;6.354;2022-11-02T08:23:02;12.70;99.90
27376;DHT22;14844;51.302;6.354;2022-11-02T08:25:28;12.70;99.90
27376;DHT22;14844;51.302;6.354;2022-11-02T08:27:58;12.90;99.90
27376;DHT22;14844;51.302;6.354;2022-11-02T08:30:24;12.90;99.90
27376;DHT22;14844;51.302;6.354;2022-11-02T08:32:50;13.00;99.90
27376;DHT22;14844;51.302;6.354;2022-11-02T08:35:15;13.10;99.90
27376;DHT22;14844;51.302;6.354;2022-11-02T08:37:41;13.20;99.90
27376;DHT22;14844;51.302;6.354;2022-11-02T08:40:07;13.20;99.90
27376;DHT22;14844;51.302;6.354;2022-11-02T08:42:33;13.20;99.90
27376;DHT22;14844;51.302;6.354;2022-11-02T08:44:58;13.30;99.90
27376;DHT22;14844;51.302;6.354;2022-11-02T08:47:24;13.20;99.90
27376;DHT22;14844;51.302;6.354;2022-11-02T08:49:49;13.40;99.90
27376;DHT22;14844;51.302;6.354;2022-11-02T08:52:16;13.50;99.90
27376;DHT22;14844;51.302;6.354;2022-11-02T08:54:43;13.50;99.90
27376;DHT22;14844;51.302;6.354;2022-11-02T08:57:08;13.50;99.90
27376;DHT22;14844;51.302;6.354;2022-11-02T08:59:34;13.70;99.90
27376;DHT22;14844;51.302;6.354;2022-11-02T09:02:00;13.70;99.90
27376;DHT22;14844;51.302;6.354;2022-11-02T09:04:25;13.80;99.90
27376;DHT22;14844;51.302;6.354;2022-11-02T09:06:51;13.70;99.90
27376;DHT22;14844;51.302;6.354;2022-11-02T09:09:16;13.70;99.90
27376;DHT22;14844;51.302;6.354;2022-11-02T09:11:42;13.90;99.90
27376;DHT22;14844;51.302;6.354;2022-11-02T09:14:07;13.80;99.90
27376;DHT22;14844;51.302;6.354;2022-11-02T09:16:33;13.80;99.90
27376;DHT22;14844;51.302;6.354;2022-11-02T09:18:59;13.90;99.90
27376;DHT22;14844;51.302;6.354;2022-11-02T09:21:24;14.10;99.90
27376;DHT22;14844;51.302;6.354;2022-11-02T09:23:50;14.30;99.90
27376;DHT22;14844;51.302;6.354;2022-11-02T09:26:15;14.40;99.90
27376;DHT22;14844;51.302;6.354;2022-11-02T09:28:41;14.20;99.90
27376;DHT22;14844;51.302;6.354;2022-11-02T09:31:06;14.20;99.90
27376;DHT22;14844;51.302;6.354;2022-11-02T09:33:32;14.10;99.90
27376;DHT22;14844;51.302;6.354;2022-11-02T09:36:04;14.20;99.90
27376;DHT22;14844;51.302;6.354;2022-11-02T09:38:30;14.50;99.90
27376;DHT22;14844;51.302;6.354;2022-11-02T09:41:07;14.40;99.90
27376;DHT22;14844;51.302;6.354;2022-11-02T09:43:59;14.50;99.90
27376;DHT22;14844;51.302;6.354;2022-11-02T09:46:32;14.50;99.90
27376;DHT22;14844;51.302;6.354;2022-11-02T09:49:01;14.60;99.90
27376;DHT22;14844;51.302;6.354;2022-11-02T09:51:33;14.50;99.90
27376;DHT22;14844;51.302;6.354;2022-11-02T09:56:44;14.30;99.90
27376;DHT22;14844;51.302;6.354;2022-11-02T10:01:52;14.10;99.90
27376;DHT22;14844;51.302;6.354;2022-11-02T10:15:22;14.00;99.90
27376;DHT22;14844;51.302;6.354;2022-11-02T10:17:52;14.20;99.90
27376;DHT22;14844;51.302;6.354;2022-11-02T10:20:46;14.20;99.90
27376;DHT22;14844;51.302;6.354;2022-11-02T10:23:30;14.40;99.90
27376;DHT22;14844;51.302;6.354;2022-11-02T10:25:57;14.60;99.90
27376;DHT22;14844;51.302;6.354;2022-11-02T10:28:27;14.70;99.90
27376;DHT22;14844;51.302;6.354;2022-11-02T10:30:54;14.70;99.90
27376;DHT22;14844;51.302;6.354;2022-11-02T10:33:28;14.70;99.90
27376;DHT22;14844;51.302;6.354;2022-11-02T10:36:08;14.70;99.90
27376;DHT22;14844;51.302;6.354;2022-11-02T10:38:47;14.90;99.90
27376;DHT22;14844;51.302;6.354;2022-11-02T10:41:42;14.90;99.90
27376;DHT22;14844;51.302;6.354;2022-11-02T10:52:13;15.30;99.90
27376;DHT22;14844;51.302;6.354;2022-11-02T10:54:40;15.30;99.90
27376;DHT22;14844;51.302;6.354;2022-11-02T10:57:13;15.40;99.90
27376;DHT22;14844;51.302;6.354;2022-11-02T10:59:39;15.40;99.90
27376;DHT22;14844;51.302;6.354;2022-11-02T11:02:12;15.30;99.90
27376;DHT22;14844;51.302;6.354;2022-11-02T11:04:40;15.40;99.90
27376;DHT22;14844;51.302;6.354;2022-11-02T11:07:15;15.30;99.90
27376;DHT22;14844;51.302;6.354;2022-11-02T11:12:22;15.30;99.90
27376;DHT22;14844;51.302;6.354;2022-11-02T11:14:56;15.50;99.90
27376;DHT22;14844;51.302;6.354;2022-11-02T11:17:31;15.50;99.90
27376;DHT22;14844;51.302;6.354;2022-11-02T11:19:58;15.20;99.90
27376;DHT22;14844;51.302;6.354;2022-11-02T11:22:37;15.00;99.90
27376;DHT22;14844;51.302;6.354;2022-11-02T11:27:57;15.40;99.90
27376;DHT22;14844;51.302;6.354;2022-11-02T11:32:49;15.30;99.90
27376;DHT22;14844;51.302;6.354;2022-11-02T11:35:17;15.00;99.90
27376;DHT22;14844;51.302;6.354;2022-11-02T11:37:52;14.90;99.90
27376;DHT22;14844;51.302;6.354;2022-11-02T11:40:19;14.90;99.90
27376;DHT22;14844;51.302;6.354;2022-11-02T11:42:49;14.60;99.90
27376;DHT22;14844;51.302;6.354;2022-11-02T11:45:24;14.60;99.90
27376;DHT22;14844;51.302;6.354;2022-11-02T11:47:52;14.80;99.90
27376;DHT22;14844;51.302;6.354;2022-11-02T11:50:18;14.80;99.90
27376;DHT22;14844;51.302;6.354;2022-11-02T11:52:44;15.20;99.90
27376;DHT22;14844;51.302;6.354;2022-11-02T11:55:25;15.40;99.90
27376;DHT22;14844;51.302;6.354;2022-11-02T12:00:29;15.60;99.90
27376;DHT22;14844;51.302;6.354;2022-11-02T12:03:07;15.50;99.90
27376;DHT22;14844;51.302;6.354;2022-11-02T12:05:45;15.40;99.90
27376;DHT22;14844;51.302;6.354;2022-11-02T12:08:32;15.40;99.90
27376;DHT22;14844;51.302;6.354;2022-11-02T12:14:01;15.20;99.90
27376;DHT22;14844;51.302;6.354;2022-11-02T12:16:58;15.50;99.90
27376;DHT22;14844;51.302;6.354;2022-11-02T12:22:45;15.80;99.90
27376;DHT22;14844;51.302;6.354;2022-11-02T12:25:34;15.90;99.90
27376;DHT22;14844;51.302;6.354;2022-11-02T12:30:46;15.90;99.90
27376;DHT22;14844;51.302;6.354;2022-11-02T12:34:21;15.90;99.90
27376;DHT22;14844;51.302;6.354;2022-11-02T12:36:33;16.00;99.90
27376;DHT22;14844;51.302;6.354;2022-11-02T12:39:46;16.40;99.90
27376;DHT22;14844;51.302;6.354;2022-11-02T12:53:09;16.30;99.90
27376;DHT22;14844;51.302;6.354;2022-11-02T12:55:43;16.30;99.90
27376;DHT22;14844;51.302;6.354;2022-11-02T12:58:24;16.00;99.90
27376;DHT22;14844;51.302;6.354;2022-11-02T13:00:57;16.00;99.90
27376;DHT22;14844;51.302;6.354;2022-11-02T13:06:12;15.80;99.90
27376;DHT22;14844;51.302;6.354;2022-11-02T13:08:49;15.80;99.90
27376;DHT22;14844;51.302;6.354;2022-11-02T13:11:42;15.60;99.90
27376;DHT22;14844;51.302;6.354;2022-11-02T13:14:15;15.80;99.90
27376;DHT22;14844;51.302;6.354;2022-11-02T13:17:13;16.00;99.90
27376;DHT22;14844;51.302;6.354;2022-11-02T13:19:59;15.90;99.90
27376;DHT22;14844;51.302;6.354;2022-11-02T13:22:34;15.80;99.90
27376;DHT22;14844;51.302;6.354;2022-11-02T13:25:15;16.00;99.90
27376;DHT22;14844;51.302;6.354;2022-11-02T13:27:53;15.90;99.90
27376;DHT22;14844;51.302;6.354;2022-11-02T13:30:19;16.00;99.90
27376;DHT22;14844;51.302;6.354;2022-11-02T13:33:09;16.00;99.90
27376;DHT22;14844;51.302;6.354;2022-11-02T13:35:38;16.10;99.90
27376;DHT22;14844;51.302;6.354;2022-11-02T13:38:43;16.20;99.90
27376;DHT22;14844;51.302;6.354;2022-11-02T13:41:38;16.40;99.90
27376;DHT22;14844;51.302;6.354;2022-11-02T13:44:32;16.30;99.90
27376;DHT22;14844;51.302;6.354;2022-11-02T13:49:52;15.90;99.90
27376;DHT22;14844;51.302;6.354;2022-11-02T13:52:44;15.80;99.90
27376;DHT22;14844;51.302;6.354;2022-11-02T13:55:17;16.00;99.90
27376;DHT22;14844;51.302;6.354;2022-11-02T13:57:46;16.20;99.90
27376;DHT22;14844;51.302;6.354;2022-11-02T14:05:30;16.30;99.90
27376;DHT22;14844;51.302;6.354;2022-11-02T14:08:05;16.10;99.90
27376;DHT22;14844;51.302;6.354;2022-11-02T14:10:36;16.20;99.90
27376;DHT22;14844;51.302;6.354;2022-11-02T14:13:02;16.20;99.90
27376;DHT22;14844;51.302;6.354;2022-11-02T14:15:36;16.10;99.90
27376;DHT22;14844;51.302;6.354;2022-11-02T14:25:48;16.30;99.90
27376;DHT22;14844;51.302;6.354;2022-11-02T14:33:57;16.00;99.90
27376;DHT22;14844;51.302;6.354;2022-11-02T14:36:47;15.90;99.90
27376;DHT22;14844;51.302;6.354;2022-11-02T14:39:44;15.90;99.90
27376;DHT22;14844;51.302;6.354;2022-11-02T14:42:45;15.80;99.90
27376;DHT22;14844;51.302;6.354;2022-11-02T14:48:15;15.40;99.90
27376;DHT22;14844;51.302;6.354;2022-11-02T14:50:54;15.30;99.90
27376;DHT22;14844;51.302;6.354;2022-11-02T14:53:26;15.30;99.90
27376;DHT22;14844;51.302;6.354;2022-11-02T14:55:53;15.10;99.90
27376;DHT22;14844;51.302;6.354;2022-11-02T14:58:30;14.90;99.90
27376;DHT22;14844;51.302;6.354;2022-11-02T15:00:59;14.60;99.90
27376;DHT22;14844;51.302;6.354;2022-11-02T15:03:27;14.40;99.90
27376;DHT22;14844;51.302;6.354;2022-11-02T15:08:58;14.10;99.90
27376;DHT22;14844;51.302;6.354;2022-11-02T15:19:50;13.60;99.90
27376;DHT22;14844;51.302;6.354;2022-11-02T15:22:43;13.50;99.90
27376;DHT22;14844;51.302;6.354;2022-11-02T15:25:19;13.40;99.90
27376;DHT22;14844;51.302;6.354;2022-11-02T15:27:45;13.30;99.90
27376;DHT22;14844;51.302;6.354;2022-11-02T15:30:19;13.10;99.90
27376;DHT22;14844;51.302;6.354;2022-11-02T15:32:50;13.00;99.90
27376;DHT22;14844;51.302;6.354;2022-11-02T15:35:20;12.90;99.90
27376;DHT22;14844;51.302;6.354;2022-11-02T15:37:55;12.80;99.90
27376;DHT22;14844;51.302;6.354;2022-11-02T15:40:32;12.70;99.90
27376;DHT22;14844;51.302;6.354;2022-11-02T15:43:11;12.60;99.90
27376;DHT22;14844;51.302;6.354;2022-11-02T15:46:17;12.60;99.90
27376;DHT22;14844;51.302;6.354;2022-11-02T15:49:00;12.70;99.90
27376;DHT22;14844;51.302;6.354;2022-11-02T15:54:16;12.60;99.90
27376;DHT22;14844;51.302;6.354;2022-11-02T16:02:37;12.20;99.90
27376;DHT22;14844;51.302;6.354;2022-11-02T16:05:04;12.10;99.90
27376;DHT22;14844;51.302;6.354;2022-11-02T16:07:31;12.00;99.90
27376;DHT22;14844;51.302;6.354;2022-11-02T16:12:45;11.70;99.90
27376;DHT22;14844;51.302;6.354;2022-11-02T16:15:13;11.60;99.90
27376;DHT22;14844;51.302;6.354;2022-11-02T16:17:39;11.50;99.90
27376;DHT22;14844;51.302;6.354;2022-11-02T16:20:30;11.50;99.90
27376;DHT22;14844;51.302;6.354;2022-11-02T16:23:00;11.40;99.90
27376;DHT22;14844;51.302;6.354;2022-11-02T16:27:54;11.40;99.90
27376;DHT22;14844;51.302;6.354;2022-11-02T16:30:21;11.30;99.90
27376;DHT22;14844;51.302;6.354;2022-11-02T16:32:51;11.30;99.90
27376;DHT22;14844;51.302;6.354;2022-11-02T16:35:17;11.20;99.90
27376;DHT22;14844;51.302;6.354;2022-11-02T16:37:47;11.00;99.90
27376;DHT22;14844;51.302;6.354;2022-11-02T16:40:19;10.90;99.90
27376;DHT22;14844;51.302;6.354;2022-11-02T16:42:47;10.90;99.90
27376;DHT22;14844;51.302;6.354;2022-11-02T16:45:36;10.80;99.90
27376;DHT22;14844;51.302;6.354;2022-11-02T16:48:19;10.70;99.90
27376;DHT22;14844;51.302;6.354;2022-11-02T16:53:35;10.50;99.90
27376;DHT22;14844;51.302;6.354;2022-11-02T16:56:25;10.50;99.90
27376;DHT22;14844;51.302;6.354;2022-11-02T16:59:03;10.40;99.90
27376;DHT22;14844;51.302;6.354;2022-11-02T17:01:39;10.40;99.90
27376;DHT22;14844;51.302;6.354;2022-11-02T17:06:42;10.30;99.90
27376;DHT22;14844;51.302;6.354;2022-11-02T17:09:27;10.30;99.90
27376;DHT22;14844;51.302;6.354;2022-11-02T17:11:59;10.30;99.90
27376;DHT22;14844;51.302;6.354;2022-11-02T17:14:28;10.30;99.90
27376;DHT22;14844;51.302;6.354;2022-11-02T17:17:04;10.30;99.90
27376;DHT22;14844;51.302;6.354;2022-11-02T17:22:15;10.20;99.90
27376;DHT22;14844;51.302;6.354;2022-11-02T17:24:46;10.20;99.90
27376;DHT22;14844;51.302;6.354;2022-11-02T17:27:24;10.20;99.90
27376;DHT22;14844;51.302;6.354;2022-11-02T17:29:52;10.20;99.90
27376;DHT22;14844;51.302;6.354;2022-11-02T17:32:19;10.20;99.90
27376;DHT22;14844;51.302;6.354;2022-11-02T17:34:50;10.20;99.90
27376;DHT22;14844;51.302;6.354;2022-11-02T17:37:30;10.10;99.90
27376;DHT22;14844;51.302;6.354;2022-11-02T17:39:59;10.10;99.90
27376;DHT22;14844;51.302;6.354;2022-11-02T17:42:25;10.10;99.90
27376;DHT22;14844;51.302;6.354;2022-11-02T17:45:29;10.10;99.90
27376;DHT22;14844;51.302;6.354;2022-11-02T17:48:00;10.10;99.90
27376;DHT22;14844;51.302;6.354;2022-11-02T17:50:28;10.00;99.90
27376;DHT22;14844;51.302;6.354;2022-11-02T17:52:55;10.10;99.90
27376;DHT22;14844;51.302;6.354;2022-11-02T17:55:24;10.10;99.90
27376;DHT22;14844;51.302;6.354;2022-11-02T17:57:51;10.10;99.90
27376;DHT22;14844;51.302;6.354;2022-11-02T18:00:17;10.20;99.90
27376;DHT22;14844;51.302;6.354;2022-11-02T18:02:51;10.30;99.90
27376;DHT22;14844;51.302;6.354;2022-11-02T18:05:27;10.40;99.90
27376;DHT22;14844;51.302;6.354;2022-11-02T18:07:54;10.50;99.90
27376;DHT22;14844;51.302;6.354;2022-11-02T18:10:26;10.50;99.90
27376;DHT22;14844;51.302;6.354;2022-11-02T18:12:52;10.50;99.90
27376;DHT22;14844;51.302;6.354;2022-11-02T18:15:20;10.50;99.90
27376;DHT22;14844;51.302;6.354;2022-11-02T18:17:46;10.50;99.90
27376;DHT22;14844;51.302;6.354;2022-11-02T18:20:12;10.50;99.90